createdAt,value
2018-01-26T00:01:16.712Z,6.10
2018-01-26T00:03:45.750Z,6.53
2018-01-26T00:06:14.780Z,7.30
2018-01-26T00:08:43.808Z,5.83
2018-01-26T00:11:12.843Z,5.40
2018-01-26T00:13:41.878Z,6.00
2018-01-26T00:16:10.940Z,7.10
2018-01-26T00:18:39.979Z,5.57
2018-01-26T00:21:08.990Z,6.57
2018-01-26T00:23:38.028Z,7.83
2018-01-26T00:26:07.065Z,6.80
2018-01-26T00:28:36.105Z,6.00
2018-01-26T00:33:41.092Z,6.95
2018-01-26T00:36:10.120Z,8.10
2018-01-26T00:38:39.157Z,7.00
2018-01-26T00:43:43.393Z,7.10
2018-01-26T00:46:12.419Z,8.50
2018-01-26T00:48:41.433Z,6.80
2018-01-26T00:51:10.482Z,5.10
2018-01-26T00:56:14.752Z,7.65
2018-01-26T00:58:43.785Z,6.70
2018-01-26T01:01:12.808Z,6.10
2018-01-26T01:03:41.842Z,5.50
2018-01-26T01:06:10.877Z,6.78
2018-01-26T01:11:16.092Z,6.12
2018-01-26T01:13:45.136Z,5.75
2018-01-26T01:16:14.213Z,8.57
2018-01-26T01:18:43.242Z,6.60
2018-01-26T01:21:12.269Z,8.67
2018-01-26T01:23:41.293Z,4.70
2018-01-26T01:26:10.409Z,6.50
2018-01-26T01:28:39.449Z,5.47
2018-01-26T01:31:08.472Z,7.80
2018-01-26T01:33:37.509Z,6.00
2018-01-26T01:36:06.565Z,5.40
2018-01-26T01:38:35.611Z,6.30
2018-01-26T01:41:04.657Z,5.60
2018-01-26T01:46:08.921Z,6.50
2018-01-26T01:48:37.953Z,6.12
2018-01-26T01:51:06.980Z,6.03
2018-01-26T01:53:36.006Z,5.23
2018-01-26T01:56:05.033Z,5.75
2018-01-26T01:58:34.122Z,7.50
2018-01-26T02:01:07.059Z,6.33
2018-01-26T02:03:36.079Z,4.80
2018-01-26T02:06:05.109Z,5.87
2018-01-26T02:08:34.144Z,7.10
2018-01-26T02:11:03.177Z,4.80
2018-01-26T02:13:32.226Z,6.20
2018-01-26T02:16:01.299Z,6.60
2018-01-26T02:18:30.328Z,7.23
2018-01-26T02:20:59.368Z,6.00
2018-01-26T02:23:28.393Z,4.90
2018-01-26T02:25:57.460Z,5.37
2018-01-26T02:28:26.510Z,7.20
2018-01-26T02:30:59.171Z,6.27
2018-01-26T02:33:28.185Z,6.40
2018-01-26T02:35:57.233Z,5.10
2018-01-26T02:38:26.258Z,4.90
2018-01-26T02:40:55.290Z,5.20
2018-01-26T02:43:24.368Z,4.70
2018-01-26T02:45:53.393Z,5.68
2018-01-26T02:48:22.444Z,7.63
2018-01-26T02:50:51.489Z,4.57
2018-01-26T02:53:20.599Z,5.27
2018-01-26T02:55:49.633Z,6.90
2018-01-26T02:58:26.005Z,5.10
2018-01-26T03:00:55.027Z,5.05
2018-01-26T03:03:24.052Z,6.25
2018-01-26T03:05:53.268Z,5.78
2018-01-26T03:08:22.296Z,7.50
2018-01-26T03:10:51.360Z,6.68
2018-01-26T03:13:24.616Z,6.83
2018-01-26T03:15:57.604Z,5.67
2018-01-26T03:18:26.620Z,6.63
2018-01-26T03:20:55.649Z,7.37
2018-01-26T03:23:24.681Z,9.90
2018-01-26T03:25:53.723Z,6.78
2018-01-26T03:28:22.753Z,6.30
2018-01-26T03:30:51.769Z,6.60
2018-01-26T03:33:20.803Z,7.18
2018-01-26T03:35:49.857Z,7.47
2018-01-26T03:38:18.881Z,5.83
2018-01-26T03:40:47.906Z,4.70
2018-01-26T03:43:16.941Z,4.70
2018-01-26T03:45:46.757Z,5.75
2018-01-26T03:48:18.209Z,5.17
2018-01-26T03:50:47.214Z,5.70
2018-01-26T03:53:16.247Z,5.07
2018-01-26T03:55:45.318Z,4.70
2018-01-26T03:58:14.335Z,5.87
2018-01-26T04:03:18.574Z,5.45
2018-01-26T04:05:47.616Z,6.00
2018-01-26T04:08:16.653Z,5.78
2018-01-26T04:13:20.904Z,5.20
2018-01-26T04:15:49.934Z,5.50
2018-01-26T04:18:18.965Z,4.50
2018-01-26T04:23:43.813Z,5.90
2018-01-26T04:26:12.848Z,5.57
2018-01-26T04:28:44.103Z,5.57
2018-01-26T04:31:14.016Z,5.30
2018-01-26T04:33:43.538Z,5.60
2018-01-26T04:36:12.569Z,6.43
2018-01-26T04:41:16.825Z,6.07
2018-01-26T04:43:45.865Z,6.57
2018-01-26T04:46:14.908Z,6.53
2018-01-26T04:48:43.948Z,5.50
2018-01-26T04:51:12.973Z,5.50
2018-01-26T04:53:42.064Z,6.00
2018-01-26T04:56:11.109Z,5.15
2018-01-26T04:58:40.143Z,5.55
2018-01-26T05:01:09.175Z,5.40
2018-01-26T05:03:38.201Z,4.70
2018-01-26T05:06:07.232Z,5.33
2018-01-26T05:08:36.282Z,4.93
2018-01-26T05:11:05.385Z,5.20
2018-01-26T05:13:34.396Z,5.15
2018-01-26T05:18:38.642Z,5.15
2018-01-26T05:21:07.677Z,6.30
2018-01-26T05:23:36.762Z,5.85
2018-01-26T05:26:05.869Z,5.97
2018-01-26T05:28:34.888Z,7.70
2018-01-26T05:31:03.933Z,5.80
2018-01-26T05:33:32.963Z,5.35
2018-01-26T05:36:02.012Z,5.10
2018-01-26T05:38:31.036Z,5.35
2018-01-26T05:41:00.073Z,5.87
2018-01-26T05:43:29.127Z,5.95
2018-01-26T05:45:58.213Z,6.50
2018-01-26T05:48:27.264Z,7.70
2018-01-26T05:50:56.299Z,6.20
2018-01-26T05:53:25.353Z,7.00
2018-01-26T05:55:54.406Z,6.40
2018-01-26T05:58:23.445Z,5.50
2018-01-26T06:03:27.680Z,7.15
2018-01-26T06:08:35.352Z,5.10
2018-01-26T06:11:04.390Z,5.17
2018-01-26T06:13:33.425Z,6.90
2018-01-26T06:16:02.465Z,7.15
2018-01-26T06:18:31.520Z,7.30
2018-01-26T06:21:00.570Z,5.03
2018-01-26T06:23:29.607Z,5.68
2018-01-26T06:25:58.640Z,6.20
2018-01-26T06:28:27.673Z,5.80
2018-01-26T06:30:56.716Z,5.85
2018-01-26T06:33:25.757Z,5.10
2018-01-26T06:35:54.808Z,6.47
2018-01-26T06:38:23.838Z,7.53
2018-01-26T06:40:52.889Z,6.80
2018-01-26T06:43:21.995Z,9.45
2018-01-26T06:45:51.020Z,9.52
2018-01-26T06:53:31.474Z,16.60
2018-01-26T06:56:00.543Z,5.27
2018-01-26T06:58:29.588Z,8.35
2018-01-26T07:03:33.917Z,7.97
2018-01-26T07:06:02.961Z,8.02
2018-01-26T07:08:32.000Z,6.00
2018-01-26T07:13:36.268Z,10.55
2018-01-26T07:18:40.568Z,6.00
2018-01-26T07:21:09.652Z,5.20
2018-01-26T07:23:38.701Z,6.00
2018-01-26T07:26:07.741Z,5.17
2018-01-26T07:28:36.776Z,7.10
2018-01-26T07:31:05.844Z,5.27
2018-01-26T07:33:34.877Z,7.32
2018-01-26T07:36:03.997Z,4.30
2018-01-26T07:38:33.985Z,6.37
2018-01-26T07:41:03.072Z,11.40
2018-01-26T07:43:32.124Z,6.70
2018-01-26T07:46:03.058Z,9.45
2018-01-26T07:48:32.087Z,6.10
2018-01-26T07:51:01.146Z,6.43
2018-01-26T07:53:30.181Z,6.85
2018-01-26T07:55:59.217Z,13.73
2018-01-26T07:58:28.265Z,10.07
2018-01-26T08:00:57.310Z,9.90
2018-01-26T08:03:26.361Z,8.77
2018-01-26T08:05:55.412Z,5.70
2018-01-26T08:08:24.450Z,6.00
2018-01-26T08:10:53.492Z,10.43
2018-01-26T08:13:22.524Z,10.73
2018-01-26T08:15:52.374Z,9.10
2018-01-26T08:18:21.413Z,10.43
2018-01-26T08:20:50.440Z,7.40
2018-01-26T08:23:19.473Z,7.20
2018-01-26T08:25:49.927Z,6.82
2018-01-26T08:28:28.379Z,8.90
2018-01-26T08:30:58.583Z,5.90
2018-01-26T08:33:27.673Z,6.37
2018-01-26T08:36:01.654Z,7.43
2018-01-26T08:38:30.652Z,7.00
2018-01-26T08:41:00.489Z,6.03
2018-01-26T08:43:29.523Z,8.50
2018-01-26T08:45:59.561Z,7.13
2018-01-26T08:48:28.649Z,7.20
2018-01-26T08:50:58.371Z,9.27
2018-01-26T08:53:27.445Z,7.97
2018-01-26T08:55:58.053Z,7.77
2018-01-26T08:58:27.079Z,7.00
2018-01-26T09:00:56.093Z,8.33
2018-01-26T09:06:00.338Z,11.77
2018-01-26T09:11:08.039Z,8.82
2018-01-26T09:13:37.114Z,8.53
2018-01-26T09:16:06.092Z,9.00
2018-01-26T09:18:35.129Z,8.80
2018-01-26T09:21:07.735Z,10.70
2018-01-26T09:23:36.976Z,7.57
2018-01-26T09:26:06.001Z,8.00
2018-01-26T09:28:35.029Z,7.40
2018-01-26T09:31:04.057Z,9.20
2018-01-26T09:33:33.091Z,8.50
2018-01-26T09:36:02.160Z,10.07
2018-01-26T09:38:31.197Z,9.27
2018-01-26T09:43:35.453Z,10.90
2018-01-26T09:46:04.712Z,10.80
2018-01-26T09:48:33.827Z,9.23
2018-01-26T09:51:02.844Z,9.53
2018-01-26T09:53:31.878Z,8.00
2018-01-26T09:56:01.644Z,8.57
2018-01-26T09:58:30.649Z,9.38
2018-01-26T10:00:59.694Z,10.38
2018-01-26T10:03:28.730Z,8.80
2018-01-26T10:05:57.784Z,9.20
2018-01-26T10:08:26.806Z,8.83
2018-01-26T10:10:55.866Z,13.52
2018-01-26T10:16:00.235Z,9.77
2018-01-26T10:18:29.295Z,9.57
2018-01-26T10:20:58.318Z,9.55
2018-01-26T10:23:27.355Z,9.40
2018-01-26T10:25:56.406Z,10.87
2018-01-26T10:31:00.689Z,10.68
2018-01-26T10:33:29.743Z,13.63
2018-01-26T10:35:58.781Z,9.17
2018-01-26T10:41:03.175Z,10.63
2018-01-26T10:43:32.198Z,9.83
2018-01-26T10:46:01.357Z,9.30
2018-01-26T10:48:30.325Z,10.90
2018-01-26T10:51:00.333Z,11.83
2018-01-26T10:53:29.399Z,10.63
2018-01-26T10:55:58.570Z,10.47
2018-01-26T10:58:27.632Z,11.23
2018-01-26T11:03:31.922Z,10.60
2018-01-26T11:06:00.994Z,11.48
2018-01-26T11:08:30.038Z,10.67
2018-01-26T11:10:59.074Z,9.53
2018-01-26T11:13:28.116Z,10.10
2018-01-26T11:15:57.167Z,10.37
2018-01-26T11:18:26.213Z,10.53
2018-01-26T11:20:55.286Z,9.57
2018-01-26T11:23:24.363Z,9.90
2018-01-26T11:25:54.905Z,9.43
2018-01-26T11:28:23.954Z,10.55
2018-01-26T11:30:52.993Z,10.43
2018-01-26T11:33:22.038Z,9.67
2018-01-26T11:35:51.093Z,10.03
2018-01-26T11:38:20.268Z,10.93
2018-01-26T11:40:49.272Z,9.47
2018-01-26T11:43:18.354Z,10.60
2018-01-26T11:45:47.418Z,11.13
2018-01-26T11:48:16.468Z,11.00
2018-01-26T11:50:45.590Z,10.63
2018-01-26T11:53:14.613Z,10.10
2018-01-26T11:55:43.689Z,10.27
2018-01-26T11:58:12.712Z,9.30
2018-01-26T12:00:41.766Z,10.43
2018-01-26T12:03:10.826Z,11.67
2018-01-26T12:05:39.877Z,11.17
2018-01-26T12:08:08.950Z,10.57
2018-01-26T12:10:38.596Z,11.60
2018-01-26T12:13:07.650Z,11.20
2018-01-26T12:15:37.645Z,10.80
2018-01-26T12:18:06.706Z,11.63
2018-01-26T12:20:36.767Z,10.60
2018-01-26T12:23:05.833Z,10.40
2018-01-26T12:25:35.892Z,10.07
2018-01-26T12:30:40.236Z,11.00
2018-01-26T12:33:09.293Z,10.33
2018-01-26T12:35:38.640Z,10.27
2018-01-26T12:38:07.686Z,10.30
2018-01-26T12:40:37.541Z,9.70
2018-01-26T12:45:41.945Z,10.40
2018-01-26T12:48:10.982Z,10.00
2018-01-26T12:50:40.037Z,9.90
2018-01-26T12:55:44.378Z,9.63
2018-01-26T12:58:13.421Z,9.85
2018-01-26T13:00:42.465Z,9.30
2018-01-26T13:03:11.528Z,9.53
2018-01-26T13:05:46.059Z,9.60
2018-01-26T13:10:50.602Z,9.30
2018-01-26T13:13:19.653Z,8.75
2018-01-26T13:15:48.714Z,9.43
2018-01-26T13:18:17.756Z,10.40
2018-01-26T13:20:46.805Z,9.80
2018-01-26T13:23:15.854Z,10.60
2018-01-26T13:25:45.046Z,9.43
2018-01-26T13:28:15.032Z,10.37
2018-01-26T13:30:44.103Z,10.50
2018-01-26T13:35:48.357Z,9.70
2018-01-26T13:38:17.423Z,9.07
2018-01-26T13:40:46.459Z,10.40
2018-01-26T13:43:15.505Z,10.27
2018-01-26T13:45:44.568Z,10.70
2018-01-26T13:48:13.630Z,10.10
2018-01-26T13:50:42.702Z,10.90
2018-01-26T13:53:11.757Z,10.07
2018-01-26T13:55:40.840Z,10.20
2018-01-26T13:58:09.919Z,11.07
2018-01-26T14:00:38.985Z,11.60
2018-01-26T14:03:08.038Z,11.40
2018-01-26T14:05:37.994Z,11.40
2018-01-26T14:08:07.022Z,11.70
2018-01-26T14:10:36.901Z,11.98
2018-01-26T14:15:41.206Z,12.10
2018-01-26T14:18:10.262Z,12.80
2018-01-26T14:20:39.321Z,12.97
2018-01-26T14:23:08.382Z,13.80
2018-01-26T14:25:38.119Z,12.80
2018-01-26T14:28:07.203Z,12.37
2018-01-26T14:30:36.993Z,12.57
2018-01-26T14:33:06.051Z,10.90
2018-01-26T14:35:35.941Z,11.50
2018-01-26T14:38:05.022Z,10.40
2018-01-26T14:40:34.106Z,11.35
2018-01-26T14:43:03.145Z,11.47
2018-01-26T14:45:32.226Z,12.07
2018-01-26T14:50:37.460Z,11.63
2018-01-26T14:53:10.163Z,13.60
2018-01-26T14:55:44.259Z,13.43
2018-01-26T14:58:18.939Z,13.33
2018-01-26T15:00:51.266Z,12.57
2018-01-26T15:03:20.298Z,15.80
2018-01-26T15:05:49.353Z,14.27
2018-01-26T15:13:29.817Z,15.25
2018-01-26T15:18:36.038Z,15.13
2018-01-26T15:21:05.062Z,16.57
2018-01-26T15:23:34.115Z,13.03
2018-01-26T15:26:03.184Z,14.57
2018-01-26T15:28:32.246Z,13.00
2018-01-26T15:31:01.821Z,12.43
2018-01-26T15:33:30.854Z,15.60
2018-01-26T15:35:59.918Z,16.27
2018-01-26T15:38:28.952Z,14.77
2018-01-26T15:40:58.000Z,15.77
2018-01-26T15:43:27.033Z,14.30
2018-01-26T15:45:56.078Z,16.17
2018-01-26T15:51:00.339Z,17.50
2018-01-26T15:53:29.390Z,15.37
2018-01-26T15:55:58.437Z,17.47
2018-01-26T15:58:27.482Z,18.37
2018-01-26T16:00:56.532Z,15.47
2018-01-26T16:03:25.575Z,16.10
2018-01-26T16:05:54.623Z,19.27
2018-01-26T16:08:23.842Z,16.00
2018-01-26T16:10:52.883Z,15.87
2018-01-26T16:13:21.918Z,17.92
2018-01-26T16:16:04.621Z,20.07
2018-01-26T16:18:33.705Z,15.63
2018-01-26T16:21:03.642Z,18.80
2018-01-26T16:23:32.694Z,15.17
2018-01-26T16:26:01.762Z,19.93
2018-01-26T16:28:30.800Z,13.70
2018-01-26T16:30:59.846Z,17.67
2018-01-26T16:33:28.899Z,16.87
2018-01-26T16:35:57.961Z,16.70
2018-01-26T16:41:02.249Z,38.78
2018-01-26T16:43:31.315Z,18.60
2018-01-26T16:46:00.381Z,20.13
2018-01-26T16:48:35.385Z,23.03
2018-01-26T16:51:09.777Z,23.10
2018-01-26T16:53:39.061Z,17.20
2018-01-26T16:56:08.758Z,13.50
2018-01-26T16:58:37.844Z,14.97
2018-01-26T17:01:10.240Z,13.20
2018-01-26T17:03:39.376Z,12.93
2018-01-26T17:06:08.964Z,13.13
2018-01-26T17:08:37.996Z,13.67
2018-01-26T17:11:07.753Z,13.77
2018-01-26T17:13:41.379Z,17.60
2018-01-26T17:16:11.194Z,14.90
2018-01-26T17:18:40.234Z,20.77
2018-01-26T17:21:09.294Z,15.98
2018-01-26T17:31:24.086Z,17.67
2018-01-26T17:33:53.142Z,17.08
2018-01-26T17:36:26.379Z,14.93
2018-01-26T17:38:55.438Z,17.60
2018-01-26T17:41:25.551Z,16.20
2018-01-26T17:43:54.879Z,14.67
2018-01-26T17:48:59.999Z,19.30
2018-01-26T17:51:29.061Z,20.25
2018-01-26T17:53:58.120Z,19.95
2018-01-26T17:56:28.086Z,19.47
2018-01-26T17:58:57.172Z,20.10
2018-01-26T18:01:26.219Z,16.53
2018-01-26T18:03:55.255Z,18.27
2018-01-26T18:06:24.312Z,19.13
2018-01-26T18:08:53.351Z,20.33
2018-01-26T18:11:22.425Z,18.20
2018-01-26T18:15:54.015Z,19.63
2018-01-26T18:20:58.371Z,21.48
2018-01-26T18:23:27.665Z,35.03
2018-01-26T18:25:56.712Z,32.93
2018-01-26T18:28:25.865Z,26.55
2018-01-26T18:30:54.914Z,22.13
2018-01-26T18:33:24.004Z,16.07
2018-01-26T18:41:03.891Z,28.50
2018-01-26T18:46:08.584Z,27.13
2018-01-26T18:48:37.772Z,21.13
2018-01-26T18:51:08.902Z,21.97
2018-01-26T18:53:39.703Z,23.90
2018-01-26T18:56:08.952Z,21.67
2018-01-26T18:58:38.064Z,20.20
2018-01-26T19:01:07.797Z,20.40
2018-01-26T19:06:18.879Z,21.43
2018-01-26T19:08:51.941Z,20.25
2018-01-26T19:11:26.183Z,19.30
2018-01-26T19:13:59.109Z,20.58
2018-01-26T19:16:33.598Z,16.10
2018-01-26T19:19:06.792Z,18.65
2018-01-26T19:21:35.803Z,21.08
2018-01-26T19:24:05.639Z,20.87
2018-01-26T19:26:34.710Z,24.77
2018-01-26T19:29:03.781Z,28.40
2018-01-26T19:31:32.818Z,32.40
2018-01-26T19:34:01.869Z,28.60
2018-01-26T19:36:30.908Z,26.75
2018-01-26T19:39:00.062Z,25.65
2018-01-26T19:41:30.936Z,21.80
2018-01-26T19:43:59.973Z,24.12
2018-01-26T19:46:29.037Z,23.65
2018-01-26T19:48:58.074Z,24.63
2018-01-26T19:51:28.050Z,19.00
2018-01-26T19:53:57.073Z,28.15
2018-01-26T19:56:26.135Z,25.03
2018-01-26T19:58:55.169Z,26.15
2018-01-26T20:01:24.220Z,26.95
2018-01-26T20:09:09.189Z,30.88
2018-01-26T20:11:38.166Z,29.60
2018-01-26T20:14:13.955Z,26.33
2018-01-26T20:16:43.507Z,27.70
2018-01-26T20:21:47.802Z,28.25
2018-01-26T20:24:22.477Z,25.30
2018-01-26T20:26:51.495Z,28.03
2018-01-26T20:29:20.544Z,27.77
2018-01-26T20:31:49.577Z,27.30
2018-01-26T20:34:18.625Z,27.87
2018-01-26T20:36:47.670Z,24.40
2018-01-26T20:39:16.714Z,27.70
2018-01-26T20:41:45.743Z,25.53
2018-01-26T20:44:14.789Z,30.23
2018-01-26T20:46:43.874Z,28.58
2018-01-26T20:49:12.901Z,25.27
2018-01-26T20:51:41.972Z,28.75
2018-01-26T20:54:10.998Z,26.50
2018-01-26T20:56:40.042Z,25.37
2018-01-26T20:59:09.081Z,28.75
2018-01-26T21:01:38.131Z,24.50
2018-01-26T21:04:07.191Z,28.20
2018-01-26T21:06:40.159Z,29.07
2018-01-26T21:09:09.201Z,27.13
2018-01-26T21:11:38.237Z,24.40
2018-01-26T21:14:07.292Z,26.67
2018-01-26T21:16:36.346Z,24.63
2018-01-26T21:19:05.393Z,22.30
2018-01-26T21:21:34.432Z,25.50
2018-01-26T21:24:03.469Z,28.12
2018-01-26T21:26:32.530Z,23.63
2018-01-26T21:29:01.626Z,23.93
2018-01-26T21:34:06.909Z,28.27
2018-01-26T21:36:35.975Z,25.67
2018-01-26T21:41:40.765Z,26.35
2018-01-26T21:44:09.802Z,23.90
2018-01-26T21:46:38.845Z,23.57
2018-01-26T21:49:07.885Z,23.23
2018-01-26T21:51:36.930Z,27.20
2018-01-26T21:56:41.204Z,27.50
2018-01-26T21:59:10.278Z,27.80
2018-01-26T22:01:39.327Z,24.05
2018-01-26T22:04:08.373Z,20.03
2018-01-26T22:09:15.081Z,25.47
2018-01-26T22:11:44.123Z,23.60
2018-01-26T22:14:13.192Z,19.80
2018-01-26T22:16:42.242Z,24.97
2018-01-26T22:19:11.296Z,26.77
2018-01-26T22:21:40.329Z,28.37
2018-01-26T22:24:09.370Z,24.80
2018-01-26T22:26:38.430Z,27.65
2018-01-26T22:29:07.484Z,25.00
2018-01-26T22:31:36.522Z,24.48
2018-01-26T22:34:05.549Z,22.70
2018-01-26T22:36:34.605Z,22.42
2018-01-26T22:39:03.639Z,21.13
2018-01-26T22:41:32.693Z,23.33
2018-01-26T22:44:01.726Z,23.10
2018-01-26T22:46:30.778Z,26.70
2018-01-26T22:48:59.823Z,24.93
2018-01-26T22:51:28.858Z,26.40
2018-01-26T22:53:57.901Z,28.70
2018-01-26T22:56:26.951Z,24.83
2018-01-26T22:58:56.001Z,25.57
2018-01-26T23:01:25.045Z,24.20
2018-01-26T23:03:54.095Z,22.63
2018-01-26T23:06:23.129Z,23.00
2018-01-26T23:08:52.181Z,26.30
2018-01-26T23:11:21.234Z,25.33
2018-01-26T23:13:50.285Z,20.53
2018-01-26T23:16:22.088Z,20.83
2018-01-26T23:18:53.823Z,22.40
2018-01-26T23:24:03.764Z,25.12
2018-01-26T23:26:36.031Z,24.13
2018-01-26T23:29:07.600Z,23.90
2018-01-26T23:31:39.287Z,23.83
2018-01-26T23:34:11.380Z,25.73
2018-01-26T23:39:18.977Z,25.45
2018-01-26T23:41:50.699Z,20.53
2018-01-26T23:44:22.218Z,20.40
2018-01-26T23:46:55.795Z,25.43
2018-01-26T23:49:27.426Z,20.40
2018-01-26T23:52:01.760Z,24.70
2018-01-26T23:57:08.224Z,24.30
